Altona, New York
Current Conditions -  °F | °C
As of 1:53 PM on Friday 31 Oct 2014 (Local Time) from KPBG Reporting Station
Clear Clear  
Wind Chill: 46°   Ceiling: Unl
Heat Index: 46°   Visibility: 10mi
Dew Point: 32°   Wind: 3mph
Humidity: 58%   Direction: NA
Pressure: 30.03"   Gusts: NA
Location:  44.89°N, 73.66°W
Report Text: KPBG 311753Z AUTO VRB03KT 10SM CLR 08/00 A3003 RMK AO2 SLP170 T00780000 10083 21011 58012
Loading
Personal Weather Stations






























Interactive Weather Map
Tropical Storm Tracking
New forecast layout! Learn more

10-Day Weather Forecast

Advertisements
Track Severe Weather on mobile